This is the latest recevied weather packets stored in our database for station/object KJ4YLO. If no packets are shown the sender has not sent any weather packets the latest 10 day(s).
| Time | Temp. | Humidity | Pressure | Rain* | Wind** | Luminosity | Snow |
|---|---|---|---|---|---|---|---|
| 1778082855 | 19.44° C | 76% | 1017.3 hPa | 0 mm | - | 44 W/m² | - |
| 1778081737 | 19.44° C | 72% | 1016.6 hPa | 0 mm | - | 123 W/m² | - |
| 1778081434 | 20° C | 69% | 1016.6 hPa | 0 mm | - | 61 W/m² | - |
| 1778081131 | 20° C | 67% | 1016.9 hPa | 0 mm | - | 66 W/m² | - |
| 1778080829 | 20° C | 66% | 1016.6 hPa | 0 mm | - | 167 W/m² | - |
| 1778080527 | 19.44° C | 66% | 1016.3 hPa | 0 mm | - | 152 W/m² | - |
| 1778080224 | 20° C | 67% | 1016.3 hPa | 0 mm | - | 126 W/m² | - |
| 1778079920 | 19.44° C | 68% | 1016.3 hPa | 0 mm | - | 216 W/m² | - |
| 1778079617 | 19.44° C | 70% | 1016.3 hPa | 0 mm | - | 184 W/m² | - |
| 1778079314 | 18.89° C | 69% | 1016.3 hPa | 0 mm | - | 149 W/m² | - |
| 1778079012 | 18.89° C | 70% | 1016.3 hPa | 0 mm | - | 90 W/m² | - |
| 1778078708 | 18.89° C | 70% | 1016.3 hPa | 0 mm | - | 134 W/m² | - |
| 1778078406 | 18.89° C | 69% | 1016.3 hPa | 0 mm | - | 163 W/m² | - |
| 1778078103 | 18.89° C | 69% | 1015.9 hPa | 0 mm | - | 111 W/m² | - |
| 1778077801 | 18.89° C | 66% | 1016.3 hPa | 0 mm | - | 84 W/m² | - |
| 1778077499 | 19.44° C | 66% | 1016.3 hPa | 0 mm | - | 50 W/m² | - |
| 1778077196 | 18.89° C | 65% | 1016.3 hPa | 0 mm | - | 66 W/m² | - |
| 1778076894 | 19.44° C | 64% | 1015.9 hPa | 0 mm | - | 86 W/m² | - |
| 1778076593 | 18.89° C | 65% | 1015.5 hPa | 0 mm | - | 144 W/m² | - |
| 1778076289 | 18.89° C | 66% | 1015.5 hPa | 0 mm | - | 141 W/m² | - |
| 1778075986 | 18.89° C | 66% | 1015.5 hPa | 0 mm | - | 124 W/m² | - |
| 1778075683 | 18.33° C | 67% | 1015.9 hPa | 0 mm | - | 93 W/m² | - |
| 1778075379 | 18.89° C | 68% | 1015.9 hPa | 0 mm | - | 60 W/m² | - |
| 1778075075 | 18.33° C | 66% | 1015.1 hPa | 0 mm | - | 152 W/m² | - |
| 1778074772 | 18.33° C | 68% | 1015.5 hPa | 0 mm | - | 135 W/m² | - |
* Rain latest hour (hover to see other rain measurements)
** Current wind speed in m/s (hover to see current wind gust speed)